createdAt,value
2023-01-19T00:00:57.624Z,46.80
2023-01-19T00:03:24.536Z,44.10
2023-01-19T00:05:52.781Z,44.43
2023-01-19T00:08:19.770Z,48.23
2023-01-19T00:10:48.946Z,45.67
2023-01-19T00:13:16.412Z,46.43
2023-01-19T00:15:43.858Z,50.37
2023-01-19T00:18:11.173Z,48.97
2023-01-19T00:20:39.564Z,42.57
2023-01-19T00:23:08.318Z,53.17
2023-01-19T00:25:36.204Z,49.60
2023-01-19T00:28:03.167Z,50.33
2023-01-19T00:30:30.500Z,51.30
2023-01-19T00:32:58.319Z,52.17
2023-01-19T00:35:25.571Z,55.53
2023-01-19T00:37:52.612Z,53.40
2023-01-19T00:40:20.742Z,59.07
2023-01-19T00:42:48.607Z,53.33
2023-01-19T00:45:21.250Z,49.43
2023-01-19T00:47:50.288Z,54.97
2023-01-19T00:50:17.756Z,57.27
2023-01-19T00:52:45.233Z,54.27
2023-01-19T00:55:13.759Z,55.17
2023-01-19T00:57:41.251Z,53.77
2023-01-19T01:00:14.118Z,54.73
2023-01-19T01:02:42.496Z,51.73
2023-01-19T01:05:10.791Z,50.97
2023-01-19T01:07:41.228Z,56.70
2023-01-19T01:10:14.564Z,55.40
2023-01-19T01:12:41.942Z,56.47
2023-01-19T01:15:23.574Z,59.73
2023-01-19T01:17:53.030Z,56.00
2023-01-19T01:20:27.840Z,60.63
2023-01-19T01:22:55.973Z,59.63
2023-01-19T01:25:25.386Z,64.23
2023-01-19T01:27:53.095Z,58.47
2023-01-19T01:30:21.165Z,63.27
2023-01-19T01:32:48.552Z,57.20
2023-01-19T01:35:16.491Z,60.00
2023-01-19T01:37:43.605Z,57.33
2023-01-19T01:40:16.501Z,54.10
2023-01-19T01:42:44.447Z,57.67
2023-01-19T01:45:38.478Z,54.97
2023-01-19T01:48:22.411Z,69.90
2023-01-19T01:51:16.494Z,63.27
2023-01-19T01:53:46.682Z,54.10
2023-01-19T01:56:18.215Z,54.17
2023-01-19T01:58:45.612Z,52.53
2023-01-19T02:01:31.231Z,59.50
2023-01-19T02:03:59.537Z,52.47
2023-01-19T02:06:26.977Z,56.77
2023-01-19T02:09:28.782Z,57.63
2023-01-19T02:12:15.811Z,59.13
2023-01-19T02:14:42.821Z,62.53
2023-01-19T02:17:09.716Z,57.63
2023-01-19T02:19:43.144Z,61.27
2023-01-19T02:22:18.567Z,60.60
2023-01-19T02:24:45.691Z,61.63
2023-01-19T02:27:13.208Z,58.37
2023-01-19T02:29:40.343Z,64.63
2023-01-19T02:32:08.653Z,68.87
2023-01-19T02:34:36.006Z,62.00
2023-01-19T02:37:14.822Z,60.13
2023-01-19T02:39:51.399Z,64.93
2023-01-19T02:42:41.669Z,61.00
2023-01-19T02:45:09.954Z,60.37
2023-01-19T02:47:43.721Z,53.80
2023-01-19T02:50:46.120Z,58.50
2023-01-19T02:53:30.150Z,54.40
2023-01-19T02:56:13.359Z,56.30
2023-01-19T02:59:12.109Z,51.73
2023-01-19T03:01:57.699Z,53.23
2023-01-19T03:04:24.713Z,55.87
2023-01-19T03:07:14.323Z,53.37
2023-01-19T03:10:11.778Z,52.57
2023-01-19T03:12:52.643Z,55.03
2023-01-19T03:15:27.550Z,52.40
2023-01-19T03:17:57.064Z,47.10
2023-01-19T03:20:25.654Z,55.47
2023-01-19T03:23:00.944Z,48.10
2023-01-19T03:25:31.424Z,48.73
2023-01-19T03:27:59.948Z,46.13
2023-01-19T03:30:31.086Z,45.37
2023-01-19T03:33:07.310Z,43.80
2023-01-19T03:35:37.263Z,48.23
2023-01-19T03:38:09.498Z,43.57
2023-01-19T03:40:37.125Z,44.30
2023-01-19T03:43:05.287Z,42.43
2023-01-19T03:45:34.282Z,60.73
2023-01-19T03:48:01.874Z,54.20
2023-01-19T03:50:30.697Z,50.00
2023-01-19T03:53:11.904Z,46.23
2023-01-19T03:55:42.251Z,35.27
2023-01-19T03:58:10.140Z,39.87
2023-01-19T04:00:37.749Z,40.87
2023-01-19T04:03:06.054Z,35.30
2023-01-19T04:05:34.161Z,36.53
2023-01-19T04:08:01.251Z,40.27
2023-01-19T04:10:28.110Z,42.73
2023-01-19T04:13:00.111Z,35.83
2023-01-19T04:15:28.835Z,37.20
2023-01-19T04:18:00.079Z,47.53
2023-01-19T04:20:28.622Z,41.63
2023-01-19T04:22:59.882Z,42.47
2023-01-19T04:25:27.978Z,41.53
2023-01-19T04:27:55.698Z,43.30
2023-01-19T04:30:25.401Z,42.30
2023-01-19T04:32:52.509Z,46.73
2023-01-19T04:35:19.843Z,39.93
2023-01-19T04:37:46.775Z,42.23
2023-01-19T04:40:14.049Z,42.60
2023-01-19T04:42:45.376Z,39.40
2023-01-19T04:45:13.932Z,39.63
2023-01-19T04:47:42.733Z,47.30
2023-01-19T04:50:11.738Z,41.77
2023-01-19T04:52:39.016Z,45.13
2023-01-19T04:55:07.528Z,42.63
2023-01-19T04:57:35.609Z,52.90
2023-01-19T05:00:07.645Z,43.07
2023-01-19T05:02:35.266Z,43.00
2023-01-19T05:05:03.180Z,42.47
2023-01-19T05:07:30.583Z,42.70
2023-01-19T05:09:59.463Z,41.10
2023-01-19T05:12:26.332Z,44.87
2023-01-19T05:14:53.491Z,42.97
2023-01-19T05:17:20.621Z,39.20
2023-01-19T05:19:48.835Z,40.03
2023-01-19T05:22:16.622Z,40.33
2023-01-19T05:24:43.611Z,37.90
2023-01-19T05:27:10.930Z,35.67
2023-01-19T05:29:37.877Z,39.67
2023-01-19T05:32:05.376Z,32.77
2023-01-19T05:34:32.167Z,37.67
2023-01-19T05:36:59.013Z,33.43
2023-01-19T05:39:26.815Z,37.20
2023-01-19T05:41:53.638Z,30.23
2023-01-19T05:44:20.535Z,32.37
2023-01-19T05:46:47.742Z,36.40
2023-01-19T05:49:14.876Z,35.97
2023-01-19T05:51:45.451Z,38.13
2023-01-19T05:54:17.920Z,33.57
2023-01-19T05:56:44.807Z,38.53
2023-01-19T05:59:11.739Z,35.90
2023-01-19T06:01:39.877Z,35.57
2023-01-19T06:04:07.266Z,41.37
2023-01-19T06:06:34.273Z,42.60
2023-01-19T06:09:01.135Z,39.50
2023-01-19T06:11:28.515Z,36.53
2023-01-19T06:13:55.476Z,45.17
2023-01-19T06:16:22.267Z,41.43
2023-01-19T06:18:49.079Z,44.57
2023-01-19T06:21:15.958Z,40.90
2023-01-19T06:23:42.783Z,37.27
2023-01-19T06:26:09.591Z,40.43
2023-01-19T06:28:36.433Z,36.50
2023-01-19T06:31:03.767Z,37.97
2023-01-19T06:33:30.789Z,40.20
2023-01-19T06:35:57.741Z,40.60
2023-01-19T06:38:24.857Z,41.57
2023-01-19T06:40:58.679Z,33.60
2023-01-19T06:43:26.787Z,40.23
2023-01-19T06:45:53.705Z,39.43
2023-01-19T06:48:21.002Z,41.87
2023-01-19T06:50:48.763Z,39.47
2023-01-19T06:53:16.884Z,36.30
2023-01-19T06:55:44.294Z,39.77
2023-01-19T06:58:11.968Z,38.40
2023-01-19T07:00:38.812Z,37.30
2023-01-19T07:03:09.227Z,36.97
2023-01-19T07:05:36.704Z,35.27
2023-01-19T07:08:04.040Z,37.73
2023-01-19T07:11:25.779Z,32.50
2023-01-19T07:13:17.963Z,36.07
2023-01-19T07:15:44.758Z,39.77
2023-01-19T07:18:11.608Z,36.80
2023-01-19T07:20:38.767Z,36.00
2023-01-19T07:23:05.597Z,39.83
2023-01-19T07:25:32.634Z,34.37
2023-01-19T07:28:00.235Z,39.27
2023-01-19T07:30:27.327Z,37.93
2023-01-19T07:32:58.932Z,36.17
2023-01-19T07:35:26.314Z,33.70
2023-01-19T07:37:53.133Z,39.30
2023-01-19T07:40:19.971Z,35.43
2023-01-19T07:42:48.757Z,38.57
2023-01-19T07:45:17.195Z,38.37
2023-01-19T07:47:49.068Z,37.57
2023-01-19T07:50:17.453Z,36.70
2023-01-19T07:52:44.775Z,35.87
2023-01-19T07:55:11.659Z,38.00
2023-01-19T07:57:38.462Z,40.40
2023-01-19T08:00:05.751Z,39.60
2023-01-19T08:02:34.059Z,38.27
2023-01-19T08:05:00.903Z,37.40
2023-01-19T08:07:27.736Z,45.10
2023-01-19T08:09:54.566Z,45.40
2023-01-19T08:12:21.648Z,41.53
2023-01-19T08:14:48.468Z,43.47
2023-01-19T08:17:15.292Z,41.07
2023-01-19T08:19:44.074Z,39.50
2023-01-19T08:22:10.862Z,36.80
2023-01-19T08:24:37.683Z,40.17
2023-01-19T08:27:04.704Z,41.37
2023-01-19T08:29:32.018Z,36.03
2023-01-19T08:32:02.166Z,34.97
2023-01-19T08:34:32.476Z,38.50
2023-01-19T08:36:59.633Z,59.50
2023-01-19T08:39:27.463Z,48.17
2023-01-19T08:41:54.573Z,43.23
2023-01-19T08:44:21.645Z,44.60
2023-01-19T08:46:48.580Z,49.33
2023-01-19T08:49:15.943Z,42.13
2023-01-19T08:51:45.867Z,41.27
2023-01-19T08:54:13.530Z,39.93
2023-01-19T08:56:40.373Z,41.20
2023-01-19T08:59:10.836Z,41.03
2023-01-19T09:01:39.101Z,46.27
2023-01-19T09:04:06.348Z,49.67
2023-01-19T09:06:33.169Z,66.63
2023-01-19T09:09:00.159Z,52.97
2023-01-19T09:11:27.603Z,41.80
2023-01-19T09:13:54.558Z,45.33
2023-01-19T09:16:21.527Z,47.63
2023-01-19T09:18:48.448Z,46.03
2023-01-19T09:21:15.298Z,42.20
2023-01-19T09:23:42.224Z,43.83
2023-01-19T09:26:10.045Z,46.47
2023-01-19T09:28:38.155Z,49.77
2023-01-19T09:31:07.149Z,46.73
2023-01-19T09:33:34.801Z,45.30
2023-01-19T09:36:02.315Z,41.47
2023-01-19T09:38:32.843Z,44.23
2023-01-19T09:41:00.922Z,37.80
2023-01-19T09:43:35.579Z,39.23
2023-01-19T09:46:06.682Z,40.50
2023-01-19T09:48:37.273Z,39.03
2023-01-19T09:51:09.914Z,38.77
2023-01-19T09:53:47.292Z,35.00
2023-01-19T09:56:16.072Z,37.00
2023-01-19T09:58:42.940Z,38.80
2023-01-19T10:01:48.540Z,40.93
2023-01-19T10:04:42.212Z,42.93
2023-01-19T10:07:08.977Z,45.47
2023-01-19T10:09:41.787Z,40.53
2023-01-19T10:12:21.691Z,37.83
2023-01-19T10:15:12.082Z,36.33
2023-01-19T10:18:02.153Z,40.83
2023-01-19T10:20:35.241Z,40.73
2023-01-19T10:23:05.792Z,40.83
2023-01-19T10:25:33.692Z,39.93
2023-01-19T10:28:01.721Z,44.53
2023-01-19T10:30:30.265Z,43.83
2023-01-19T10:32:57.198Z,68.50
2023-01-19T10:35:25.176Z,67.00
2023-01-19T10:37:58.483Z,52.07
2023-01-19T10:40:31.293Z,57.27
2023-01-19T10:42:59.022Z,39.73
2023-01-19T10:45:30.273Z,39.53
2023-01-19T10:48:06.639Z,37.93
2023-01-19T10:50:40.039Z,49.20
2023-01-19T10:53:22.384Z,37.03
2023-01-19T10:56:29.436Z,38.80
2023-01-19T10:58:56.370Z,40.40
2023-01-19T11:01:28.279Z,38.00
2023-01-19T11:03:57.126Z,48.03
2023-01-19T11:06:27.773Z,45.23
2023-01-19T11:09:11.182Z,40.87
2023-01-19T11:11:50.278Z,42.77
2023-01-19T11:14:23.020Z,43.27
2023-01-19T11:16:57.903Z,44.47
2023-01-19T11:19:30.769Z,37.30
2023-01-19T11:22:22.808Z,36.37
2023-01-19T11:24:50.121Z,36.43
2023-01-19T11:27:19.661Z,35.63
2023-01-19T11:29:57.962Z,34.47
2023-01-19T11:32:28.143Z,35.93
2023-01-19T11:34:55.013Z,33.10
2023-01-19T11:37:21.773Z,32.70
2023-01-19T11:39:55.016Z,33.23
2023-01-19T11:42:22.328Z,30.57
2023-01-19T11:44:49.137Z,34.67
2023-01-19T11:47:45.873Z,33.43
2023-01-19T11:50:28.426Z,31.63
2023-01-19T11:53:00.608Z,31.33
2023-01-19T11:55:53.655Z,31.20
2023-01-19T11:58:21.030Z,31.93
2023-01-19T12:01:00.538Z,35.90
2023-01-19T12:03:40.738Z,32.60
2023-01-19T12:06:14.147Z,30.67
2023-01-19T12:08:56.900Z,32.30
2023-01-19T12:11:31.632Z,28.73
2023-01-19T12:14:00.090Z,31.33
2023-01-19T12:16:30.388Z,30.00
2023-01-19T12:19:10.671Z,33.83
2023-01-19T12:21:38.231Z,31.37
2023-01-19T12:24:23.260Z,29.77
2023-01-19T12:27:02.174Z,30.87
2023-01-19T12:29:32.150Z,31.40
2023-01-19T12:32:13.931Z,28.83
2023-01-19T12:34:43.852Z,31.53
2023-01-19T12:37:34.888Z,37.93
2023-01-19T12:40:18.497Z,34.50
2023-01-19T12:43:03.093Z,31.57
2023-01-19T12:45:35.288Z,29.67
2023-01-19T12:48:03.983Z,33.00
2023-01-19T12:50:37.757Z,34.10
2023-01-19T12:53:15.927Z,32.40
2023-01-19T12:55:46.829Z,36.83
2023-01-19T12:58:20.827Z,37.47
2023-01-19T13:00:50.013Z,33.63
2023-01-19T13:03:17.823Z,33.37
2023-01-19T13:05:44.569Z,32.57
2023-01-19T13:08:14.449Z,38.73
2023-01-19T13:11:03.025Z,34.50
2023-01-19T13:13:37.108Z,36.77
2023-01-19T13:16:19.011Z,33.93
2023-01-19T13:19:05.804Z,35.80
2023-01-19T13:21:36.531Z,35.87
2023-01-19T13:24:19.499Z,38.50
2023-01-19T13:26:49.117Z,34.57
2023-01-19T13:29:31.840Z,32.87
2023-01-19T13:32:03.672Z,40.73
2023-01-19T13:34:57.621Z,35.67
2023-01-19T13:37:33.900Z,38.50
2023-01-19T13:40:02.162Z,35.70
2023-01-19T13:42:38.521Z,36.40
2023-01-19T13:45:29.856Z,35.20
2023-01-19T13:47:59.587Z,43.47
2023-01-19T13:50:35.018Z,39.73
2023-01-19T13:53:02.841Z,35.23
2023-01-19T13:55:31.036Z,40.37
2023-01-19T13:57:58.081Z,37.37
2023-01-19T14:00:28.103Z,38.83
2023-01-19T14:03:18.543Z,58.83
2023-01-19T14:05:45.716Z,37.80
2023-01-19T14:08:15.244Z,44.13
2023-01-19T14:10:48.968Z,40.77
2023-01-19T14:13:29.494Z,44.10
2023-01-19T14:15:58.969Z,44.50
2023-01-19T14:18:31.275Z,40.00
2023-01-19T14:21:02.806Z,48.47
2023-01-19T14:23:43.999Z,48.33
2023-01-19T14:26:46.658Z,48.07
2023-01-19T14:29:33.769Z,44.27
2023-01-19T14:32:00.549Z,44.53
2023-01-19T14:34:42.234Z,46.53
2023-01-19T14:37:22.414Z,45.60
2023-01-19T14:40:13.679Z,46.13
2023-01-19T14:42:43.487Z,45.07
2023-01-19T14:45:22.286Z,44.80
2023-01-19T14:48:04.859Z,42.67
2023-01-19T14:50:38.769Z,41.03
2023-01-19T14:53:16.795Z,55.10
2023-01-19T14:56:02.141Z,108.23
2023-01-19T14:58:32.901Z,70.57
2023-01-19T15:01:00.096Z,54.43
2023-01-19T15:03:43.487Z,75.57
2023-01-19T15:06:15.396Z,60.93
2023-01-19T15:08:42.668Z,52.63
2023-01-19T15:11:22.771Z,50.40
2023-01-19T15:13:50.408Z,55.20
2023-01-19T15:16:17.520Z,54.13
2023-01-19T15:18:44.384Z,64.27
2023-01-19T15:21:16.408Z,99.57
2023-01-19T15:23:43.348Z,51.70
2023-01-19T15:26:16.039Z,60.37
2023-01-19T15:28:43.198Z,61.50
2023-01-19T15:31:15.565Z,62.17
2023-01-19T15:33:42.473Z,53.90
2023-01-19T15:36:13.723Z,86.53
2023-01-19T15:38:40.736Z,63.07
2023-01-19T15:41:24.530Z,57.33
2023-01-19T15:43:51.399Z,57.63
2023-01-19T15:46:20.835Z,48.00
2023-01-19T15:48:48.623Z,55.80
2023-01-19T15:51:17.715Z,59.37
2023-01-19T15:53:45.235Z,55.50
2023-01-19T15:56:24.772Z,57.17
2023-01-19T15:58:53.228Z,69.27
2023-01-19T16:01:22.500Z,82.20
2023-01-19T16:03:50.348Z,83.30
2023-01-19T16:06:18.037Z,67.20
2023-01-19T16:08:45.021Z,70.33
2023-01-19T16:11:14.500Z,65.63
2023-01-19T16:13:45.735Z,73.27
2023-01-19T16:16:20.702Z,90.83
2023-01-19T16:18:47.711Z,69.70
2023-01-19T16:21:14.566Z,65.00
2023-01-19T16:23:41.771Z,77.57
2023-01-19T16:26:22.554Z,63.70
2023-01-19T16:28:49.483Z,64.17
2023-01-19T16:31:16.708Z,72.10
2023-01-19T16:33:45.297Z,67.13
2023-01-19T16:36:42.589Z,70.27
2023-01-19T16:39:14.611Z,66.70
2023-01-19T16:41:42.566Z,64.90
2023-01-19T16:44:11.817Z,71.97
2023-01-19T16:46:43.506Z,62.80
2023-01-19T16:49:17.917Z,70.63
2023-01-19T16:51:45.116Z,61.90
2023-01-19T16:54:23.459Z,71.67
2023-01-19T16:56:50.493Z,73.87
2023-01-19T16:59:18.444Z,59.07
2023-01-19T17:01:46.010Z,65.70
2023-01-19T17:04:13.910Z,64.07
2023-01-19T17:06:41.139Z,62.33
2023-01-19T17:09:09.485Z,64.53
2023-01-19T17:11:37.359Z,66.63
2023-01-19T17:14:08.217Z,65.97
2023-01-19T17:16:35.764Z,61.20
2023-01-19T17:19:04.741Z,66.07
2023-01-19T17:21:31.608Z,83.37
2023-01-19T17:23:58.848Z,75.33
2023-01-19T17:26:28.374Z,58.93
2023-01-19T17:29:06.280Z,51.47
2023-01-19T17:31:33.828Z,60.57
2023-01-19T17:34:01.209Z,58.17
2023-01-19T17:36:29.232Z,55.67
2023-01-19T17:38:58.795Z,51.73
2023-01-19T17:41:28.383Z,53.40
2023-01-19T17:43:56.019Z,50.30
2023-01-19T17:46:25.227Z,56.03
2023-01-19T17:48:53.022Z,57.93
2023-01-19T17:51:19.931Z,52.10
2023-01-19T17:53:46.818Z,53.90
2023-01-19T17:56:16.035Z,52.83
2023-01-19T17:58:44.182Z,57.73
2023-01-19T18:01:18.904Z,61.77
2023-01-19T18:03:46.747Z,57.73
2023-01-19T18:06:13.877Z,55.93
2023-01-19T18:08:42.846Z,60.00
2023-01-19T18:11:11.536Z,57.07
2023-01-19T18:13:38.938Z,57.93
2023-01-19T18:16:12.113Z,54.47
2023-01-19T18:18:39.205Z,58.37
2023-01-19T18:21:09.567Z,51.73
2023-01-19T18:23:36.919Z,60.30
2023-01-19T18:26:06.672Z,67.43
2023-01-19T18:28:34.140Z,62.87
2023-01-19T18:31:01.181Z,62.60
2023-01-19T18:33:28.912Z,60.83
2023-01-19T18:35:55.718Z,58.57
2023-01-19T18:38:22.541Z,57.33
2023-01-19T18:40:49.372Z,60.10
2023-01-19T18:43:16.199Z,61.47
2023-01-19T18:45:45.822Z,53.80
2023-01-19T18:48:12.591Z,57.73
2023-01-19T18:50:39.523Z,62.27
2023-01-19T18:53:06.293Z,58.80
2023-01-19T18:55:33.146Z,65.97
2023-01-19T18:57:59.956Z,57.43
2023-01-19T19:00:26.782Z,61.93
2023-01-19T19:02:55.653Z,53.90
2023-01-19T19:05:22.469Z,66.40
2023-01-19T19:07:49.421Z,67.20
2023-01-19T19:10:16.465Z,72.83
2023-01-19T19:12:43.313Z,54.80
2023-01-19T19:15:10.634Z,81.03
2023-01-19T19:17:37.462Z,72.03
2023-01-19T19:20:04.513Z,77.17
2023-01-19T19:22:32.264Z,68.13
2023-01-19T19:24:59.103Z,59.87
2023-01-19T19:27:25.969Z,68.70
2023-01-19T19:29:53.908Z,69.23
2023-01-19T19:32:21.001Z,65.27
2023-01-19T19:34:52.824Z,73.57
2023-01-19T19:37:22.851Z,66.20
2023-01-19T19:39:49.669Z,70.77
2023-01-19T19:42:16.563Z,64.27
2023-01-19T19:44:43.386Z,61.00
2023-01-19T19:47:10.164Z,59.00
2023-01-19T19:49:37.157Z,65.20
2023-01-19T19:52:04.052Z,63.60
2023-01-19T19:54:30.932Z,69.47
2023-01-19T19:56:57.723Z,64.70
2023-01-19T19:59:24.508Z,61.60
2023-01-19T20:01:53.735Z,77.50
2023-01-19T20:04:22.797Z,64.73
2023-01-19T20:06:49.699Z,64.33
2023-01-19T20:09:17.153Z,60.90
2023-01-19T20:11:46.655Z,61.47
2023-01-19T20:14:16.263Z,56.07
2023-01-19T20:16:43.406Z,54.90
2023-01-19T20:19:10.559Z,62.03
2023-01-19T20:21:39.596Z,59.37
2023-01-19T20:24:10.230Z,56.77
2023-01-19T20:26:41.340Z,55.10
2023-01-19T20:29:10.358Z,57.83
2023-01-19T20:31:42.066Z,62.47
2023-01-19T20:34:11.194Z,63.83
2023-01-19T20:36:38.179Z,59.23
2023-01-19T20:39:10.193Z,50.77
2023-01-19T20:41:43.702Z,63.40
2023-01-19T20:44:16.909Z,55.67
2023-01-19T20:46:43.737Z,64.07
2023-01-19T20:49:10.736Z,56.83
2023-01-19T20:51:41.627Z,70.53
2023-01-19T20:54:09.179Z,67.27
2023-01-19T20:56:38.540Z,59.03
2023-01-19T20:59:05.355Z,66.00
2023-01-19T21:01:32.350Z,58.97
2023-01-19T21:03:59.336Z,67.07
2023-01-19T21:06:26.178Z,64.47
2023-01-19T21:08:53.223Z,72.27
2023-01-19T21:11:21.366Z,55.47
2023-01-19T21:13:48.922Z,60.13
2023-01-19T21:16:16.361Z,68.03
2023-01-19T21:18:43.630Z,63.30
2023-01-19T21:21:20.829Z,65.97
2023-01-19T21:24:00.403Z,64.00
2023-01-19T21:26:29.881Z,64.97
2023-01-19T21:29:01.205Z,68.10
2023-01-19T21:31:28.604Z,65.43
2023-01-19T21:33:56.692Z,64.73
2023-01-19T21:36:24.596Z,64.90
2023-01-19T21:38:52.501Z,65.07
2023-01-19T21:41:20.144Z,68.03
2023-01-19T21:43:47.154Z,62.83
2023-01-19T21:46:18.023Z,62.77
2023-01-19T21:48:45.866Z,66.20
2023-01-19T21:51:14.262Z,61.13
2023-01-19T21:53:41.797Z,68.63
2023-01-19T21:56:10.287Z,57.43
2023-01-19T21:58:37.434Z,55.63
2023-01-19T22:01:10.844Z,64.20
2023-01-19T22:03:38.052Z,58.20
2023-01-19T22:06:10.246Z,62.43
2023-01-19T22:08:37.806Z,58.17
2023-01-19T22:11:09.805Z,62.27
2023-01-19T22:13:40.629Z,66.90
2023-01-19T22:16:13.424Z,67.17
2023-01-19T22:18:45.359Z,62.33
2023-01-19T22:21:21.389Z,60.07
2023-01-19T22:23:53.294Z,56.37
2023-01-19T22:26:20.191Z,58.67
2023-01-19T22:28:47.388Z,63.40
2023-01-19T22:31:17.120Z,65.00
2023-01-19T22:33:44.688Z,68.77
2023-01-19T22:36:23.190Z,65.20
2023-01-19T22:38:55.279Z,58.70
2023-01-19T22:41:26.322Z,56.90
2023-01-19T22:43:55.581Z,60.63
2023-01-19T22:46:25.449Z,57.80
2023-01-19T22:48:53.225Z,68.43
2023-01-19T22:51:21.439Z,58.83
2023-01-19T22:53:48.351Z,64.80
2023-01-19T22:56:17.577Z,60.30
2023-01-19T22:58:45.626Z,59.70
2023-01-19T23:01:14.899Z,60.93
2023-01-19T23:03:42.212Z,58.60
2023-01-19T23:06:11.655Z,57.57
2023-01-19T23:08:39.153Z,64.37
2023-01-19T23:11:13.356Z,60.47
2023-01-19T23:13:40.756Z,63.13
2023-01-19T23:16:08.218Z,60.63
2023-01-19T23:18:35.266Z,68.20
2023-01-19T23:21:07.614Z,70.20
2023-01-19T23:23:35.474Z,63.30
2023-01-19T23:26:10.067Z,50.27
2023-01-19T23:28:37.244Z,51.63
2023-01-19T23:31:43.840Z,49.20
2023-01-19T23:34:12.457Z,46.10
2023-01-19T23:36:41.510Z,57.27
2023-01-19T23:39:15.493Z,63.33
2023-01-19T23:41:42.295Z,54.87
2023-01-19T23:44:09.157Z,60.20
2023-01-19T23:46:35.974Z,69.07
2023-01-19T23:49:02.909Z,59.53
2023-01-19T23:51:31.478Z,64.07
2023-01-19T23:53:59.724Z,57.63
2023-01-19T23:56:32.891Z,61.97
2023-01-19T23:59:05.746Z,66.40
